EIPSM EINN-EIKY

Flight info

Callsign EIPSM
Flight time 0h 20m
Altitude 3500
Route TRALEE
Aircraft DA62/L-SDFGRY/C

Departure

Time 2026-04-22 11:53
Airport Shannon Airport (EINN)

Arrival

Time 2026-04-22 12:14
Airport Kerry Airport (EIKY)
Time Latitude Longitude Altitude Speed Heading
2026-04-22 11:45 52.69227 -8.91353 5 ft 0 kts 218°
2026-04-22 11:48 52.69221 -8.91364 5 ft 2 kts 248°
2026-04-22 11:49 52.69237 -8.91406 6 ft 5 kts 306°
2026-04-22 11:49 52.69257 -8.91498 6 ft 9 kts 277°
2026-04-22 11:49 52.69270 -8.91629 6 ft 13 kts 312°
2026-04-22 11:49 52.69349 -8.91742 7 ft 15 kts 343°
2026-04-22 11:50 52.69435 -8.91872 8 ft 17 kts 291°
2026-04-22 11:50 52.69469 -8.92092 9 ft 19 kts 284°
2026-04-22 11:50 52.69529 -8.92326 9 ft 21 kts 303°
2026-04-22 11:50 52.69638 -8.92519 9 ft 22 kts 316°
2026-04-22 11:51 52.69768 -8.92727 9 ft 24 kts 313°
2026-04-22 11:51 52.69876 -8.92911 11 ft 7 kts 308°
2026-04-22 11:51 52.69878 -8.92915 11 ft 0 kts 319°
2026-04-22 11:51 52.69886 -8.92926 11 ft 3 kts 318°
2026-04-22 11:52 52.69918 -8.92983 12 ft 8 kts 319°
2026-04-22 11:52 52.69982 -8.92936 11 ft 16 kts 54°
2026-04-22 11:52 52.70144 -8.92596 9 ft 60 kts 55°
2026-04-22 11:52 52.70479 -8.91922 101 ft 75 kts 58°
2026-04-22 11:53 52.70839 -8.91263 271 ft 75 kts 61°
2026-04-22 11:53 52.71178 -8.90612 504 ft 77 kts 44°
2026-04-22 11:53 52.71796 -8.90664 704 ft 105 kts 339°
2026-04-22 11:53 52.72302 -8.91647 889 ft 116 kts 293°
2026-04-22 11:54 52.72229 -8.92989 1042 ft 116 kts 242°
2026-04-22 11:54 52.71927 -8.94401 1184 ft 130 kts 242°
2026-04-22 11:54 52.71546 -8.95786 1445 ft 127 kts 228°
2026-04-22 11:54 52.71145 -8.97233 1688 ft 131 kts 235°
2026-04-22 11:55 52.70750 -8.98680 1895 ft 130 kts 232°
2026-04-22 11:55 52.70288 -9.00148 1984 ft 139 kts 228°
2026-04-22 11:55 52.69770 -9.01739 2057 ft 150 kts 231°
2026-04-22 11:55 52.69225 -9.03445 2112 ft 158 kts 231°
2026-04-22 11:56 52.68657 -9.05226 2095 ft 168 kts 232°
2026-04-22 11:56 52.68049 -9.07023 2154 ft 167 kts 229°
2026-04-22 11:56 52.67392 -9.08882 2112 ft 174 kts 230°
2026-04-22 11:56 52.66686 -9.10759 2056 ft 178 kts 226°
2026-04-22 11:57 52.65940 -9.12573 2102 ft 174 kts 225°
2026-04-22 11:57 52.65210 -9.14380 2098 ft 176 kts 227°
2026-04-22 11:57 52.64455 -9.16197 2091 ft 176 kts 223°
2026-04-22 11:57 52.63713 -9.17973 2091 ft 177 kts 227°
2026-04-22 11:58 52.63100 -9.19937 2071 ft 183 kts 239°
2026-04-22 11:58 52.62617 -9.21968 2102 ft 183 kts 242°
2026-04-22 11:58 52.62173 -9.24091 2096 ft 185 kts 244°
2026-04-22 11:58 52.61752 -9.26284 2105 ft 185 kts 246°
2026-04-22 11:59 52.61354 -9.28380 2127 ft 183 kts 243°
2026-04-22 11:59 52.60870 -9.30451 2096 ft 184 kts 239°
2026-04-22 11:59 52.60404 -9.32572 2112 ft 184 kts 244°
2026-04-22 11:59 52.59864 -9.34628 2074 ft 180 kts 229°
2026-04-22 12:00 52.59052 -9.36297 2048 ft 169 kts 210°
2026-04-22 12:00 52.58031 -9.37454 2077 ft 155 kts 191°
2026-04-22 12:00 52.56979 -9.38271 2076 ft 157 kts 193°
2026-04-22 12:00 52.55942 -9.39193 2058 ft 159 kts 194°
2026-04-22 12:01 52.54898 -9.40116 2058 ft 159 kts 195°
2026-04-22 12:01 52.53892 -9.41206 2079 ft 163 kts 202°
2026-04-22 12:01 52.52889 -9.42370 2049 ft 164 kts 201°
2026-04-22 12:01 52.51911 -9.43603 2043 ft 167 kts 205°
2026-04-22 12:02 52.50932 -9.44763 2038 ft 162 kts 199°
2026-04-22 12:02 52.49919 -9.45772 2050 ft 158 kts 195°
2026-04-22 12:02 52.48880 -9.46695 2063 ft 155 kts 191°
2026-04-22 12:02 52.47826 -9.47502 1995 ft 157 kts 190°
2026-04-22 12:03 52.46720 -9.48328 1985 ft 153 kts 188°
2026-04-22 12:03 52.45651 -9.49028 1949 ft 154 kts 186°
2026-04-22 12:03 52.44570 -9.49702 1945 ft 152 kts 186°
2026-04-22 12:03 52.43477 -9.50302 1963 ft 150 kts 184°
2026-04-22 12:04 52.42403 -9.50941 1973 ft 149 kts 184°
2026-04-22 12:04 52.41295 -9.51649 1890 ft 156 kts 188°
2026-04-22 12:04 52.40234 -9.52713 1893 ft 164 kts 206°
2026-04-22 12:04 52.39362 -9.54340 1836 ft 176 kts 222°
2026-04-22 12:05 52.38551 -9.56135 1726 ft 181 kts 224°
2026-04-22 12:05 52.37819 -9.57957 1852 ft 173 kts 225°
2026-04-22 12:05 52.37119 -9.59785 1706 ft 181 kts 226°
2026-04-22 12:05 52.36291 -9.61475 1754 ft 168 kts 218°
2026-04-22 12:06 52.35486 -9.63080 1728 ft 167 kts 213°
2026-04-22 12:06 52.34467 -9.64124 1773 ft 142 kts 180°
2026-04-22 12:06 52.33434 -9.64615 1768 ft 144 kts 177°
2026-04-22 12:06 52.32374 -9.65003 1864 ft 135 kts 173°
2026-04-22 12:07 52.31375 -9.65228 1971 ft 128 kts 170°
2026-04-22 12:07 52.30415 -9.65444 2052 ft 126 kts 168°
2026-04-22 12:07 52.29439 -9.65586 2108 ft 122 kts 163°
2026-04-22 12:07 52.28489 -9.65607 2159 ft 123 kts 166°
2026-04-22 12:08 52.27612 -9.65656 2252 ft 117 kts 161°
2026-04-22 12:08 52.26805 -9.65410 2280 ft 109 kts 148°
2026-04-22 12:08 52.26125 -9.64794 2309 ft 99 kts 126°
2026-04-22 12:08 52.25631 -9.63836 2282 ft 104 kts 122°
2026-04-22 12:09 52.25243 -9.62818 2301 ft 102 kts 112°
2026-04-22 12:09 52.24705 -9.61904 2271 ft 113 kts 137°
2026-04-22 12:09 52.23867 -9.61372 2307 ft 118 kts 150°
2026-04-22 12:09 52.22964 -9.61004 2203 ft 127 kts 154°
2026-04-22 12:10 52.21972 -9.60881 2071 ft 138 kts 164°
2026-04-22 12:10 52.20950 -9.60967 2079 ft 132 kts 165°
2026-04-22 12:10 52.19946 -9.61038 1860 ft 131 kts 168°
2026-04-22 12:10 52.18992 -9.61202 1580 ft 127 kts 169°
2026-04-22 12:11 52.18185 -9.61425 1566 ft 97 kts 164°
2026-04-22 12:11 52.17591 -9.61144 1451 ft 70 kts 129°
2026-04-22 12:11 52.17229 -9.60518 1230 ft 69 kts 115°
2026-04-22 12:11 52.17068 -9.59738 1091 ft 70 kts 104°
2026-04-22 12:12 52.16914 -9.58906 894 ft 75 kts 104°
2026-04-22 12:12 52.16943 -9.57971 760 ft 76 kts 83°
2026-04-22 12:12 52.17168 -9.57071 605 ft 76 kts 78°
2026-04-22 12:12 52.17313 -9.56253 541 ft 64 kts 76°
2026-04-22 12:13 52.17475 -9.55452 396 ft 71 kts 76°
2026-04-22 12:13 52.17634 -9.54566 248 ft 71 kts 81°
2026-04-22 12:13 52.17817 -9.53711 116 ft 71 kts 78°
2026-04-22 12:13 52.17974 -9.52929 87 ft 59 kts 79°
2026-04-22 12:14 52.18062 -9.52460 94 ft 14 kts 57°
2026-04-22 12:14 52.18061 -9.52562 92 ft 12 kts 249°
2026-04-22 12:14 52.18023 -9.52715 89 ft 15 kts 247°
2026-04-22 12:14 52.17977 -9.52919 87 ft 20 kts 251°
2026-04-22 12:15 52.17925 -9.53188 85 ft 24 kts 251°
2026-04-22 12:15 52.17865 -9.53504 80 ft 26 kts 271°
2026-04-22 12:15 52.17954 -9.53601 80 ft 14 kts 342°
2026-04-22 12:15 52.18046 -9.53584 79 ft 10 kts
2026-04-22 12:16 52.18102 -9.53577 79 ft 5 kts 344°
2026-04-22 12:16 52.18113 -9.53583 79 ft 0 kts 343°